Time;durP1;ratioP1;P1;durP2;ratioP2;P2;SDS_P1;SDS_P2;PMS_P1;PMS_P2;Temp;Humidity;BMP_temperature;BMP_pressure;BME280_temperature;BME280_humidity;BME280_pressure;Samples;Min_cycle;Max_cycle;Signal;HPM_P1;HPM_P2
2023/01/03 00:01:12;;;;;;;30.00;23.50;;;;;;;6.37;100.00;99567.68;105647;1287;59834;-71
2023/01/03 00:03:38;;;;;;;32.60;25.60;;;;;;;6.32;100.00;99565.42;105717;1290;67933;-71
2023/01/03 00:06:04;;;;;;;34.20;26.00;;;;;;;6.28;100.00;99558.89;105954;1290;59782;-71
2023/01/03 00:08:30;;;;;;;35.60;26.50;;;;;;;6.23;100.00;99563.51;105926;1291;59671;-71
2023/01/03 00:10:56;;;;;;;31.30;26.20;;;;;;;6.19;100.00;99564.87;105955;1282;59927;-72
2023/01/03 00:13:22;;;;;;;37.40;27.70;;;;;;;6.14;100.00;99568.42;105686;1284;59773;-71
2023/01/03 00:15:48;;;;;;;34.80;26.70;;;;;;;6.10;100.00;99573.20;105978;1291;59717;-71
2023/01/03 00:18:14;;;;;;;33.50;25.90;;;;;;;6.07;100.00;99572.25;105964;1285;59805;-72
2023/01/03 00:20:41;;;;;;;33.80;25.90;;;;;;;6.04;100.00;99576.94;105951;1291;59803;-72
2023/01/03 00:23:07;;;;;;;35.10;25.90;;;;;;;6.03;100.00;99584.56;105968;1284;59753;-71
2023/01/03 00:25:33;;;;;;;35.00;26.90;;;;;;;6.01;100.00;99580.95;105957;1282;59721;-72
2023/01/03 00:27:59;;;;;;;37.40;28.40;;;;;;;5.98;100.00;99580.16;105967;1274;59785;-71
2023/01/03 00:30:25;;;;;;;37.30;27.70;;;;;;;5.93;100.00;99580.68;106000;1291;60261;-71
2023/01/03 00:32:51;;;;;;;37.40;27.10;;;;;;;5.89;100.00;99579.06;105972;1284;59734;-71
2023/01/03 00:35:18;;;;;;;36.00;27.20;;;;;;;5.86;100.00;99576.39;105975;1289;59767;-71
2023/01/03 00:37:45;;;;;;;34.00;27.20;;;;;;;5.80;100.00;99577.29;105979;1291;59944;-71
2023/01/03 00:40:11;;;;;;;36.10;27.70;;;;;;;5.75;100.00;99575.92;105950;1292;60858;-70
2023/01/03 00:43:27;;;;;;;40.20;28.20;;;;;;;5.71;100.00;99579.04;105769;1294;63987;-72
2023/01/03 00:45:25;;;;;;;38.00;27.80;;;;;;;5.69;100.00;99584.56;105704;1291;59815;-71
2023/01/03 00:47:51;;;;;;;37.60;27.70;;;;;;;5.68;100.00;99589.89;105978;1287;59648;-71
2023/01/03 00:50:18;;;;;;;34.50;26.10;;;;;;;5.68;100.00;99592.73;105956;1284;75726;-72
2023/01/03 00:52:44;;;;;;;36.30;26.80;;;;;;;5.67;100.00;99587.67;105943;1290;60078;-71
2023/01/03 00:55:10;;;;;;;38.20;28.80;;;;;;;5.66;100.00;99587.34;105949;1291;59709;-71
2023/01/03 00:57:36;;;;;;;37.70;29.50;;;;;;;5.64;100.00;99583.19;105956;1297;59721;-71
2023/01/03 01:00:03;;;;;;;35.00;25.70;;;;;;;5.63;100.00;99585.16;105988;1291;59803;-71
2023/01/03 01:02:29;;;;;;;34.20;26.70;;;;;;;5.61;100.00;99584.52;105969;1274;59755;-71
2023/01/03 01:04:56;;;;;;;36.40;26.80;;;;;;;5.59;100.00;99585.14;105947;1288;59784;-72
2023/01/03 01:07:23;;;;;;;29.70;24.80;;;;;;;5.60;100.00;99593.58;105956;1284;60179;-71
2023/01/03 01:09:50;;;;;;;29.10;24.80;;;;;;;5.62;100.00;99597.35;105961;1291;59802;-71
2023/01/03 01:12:17;;;;;;;30.30;21.90;;;;;;;5.65;100.00;99598.12;105692;1288;59675;-71
2023/01/03 01:14:43;;;;;;;27.90;21.00;;;;;;;5.69;100.00;99590.77;105848;1284;59714;-71
2023/01/03 01:17:09;;;;;;;21.60;18.90;;;;;;;5.73;100.00;99588.13;105976;1290;60187;-72
2023/01/03 01:19:38;;;;;;;26.90;19.20;;;;;;;5.84;100.00;99595.30;105974;1291;59766;-72
2023/01/03 01:22:05;;;;;;;24.30;19.00;;;;;;;6.00;100.00;99605.86;105935;1282;60215;-71
2023/01/03 01:24:31;;;;;;;25.40;19.10;;;;;;;6.14;100.00;99610.06;105966;1291;59767;-71
2023/01/03 01:27:00;;;;;;;23.50;18.40;;;;;;;6.27;100.00;99612.76;105969;1292;67897;-71
2023/01/03 01:29:26;;;;;;;24.60;18.60;;;;;;;6.36;100.00;99614.66;105956;1292;60693;-70
2023/01/03 01:31:52;;;;;;;26.30;19.40;;;;;;;6.43;100.00;99610.67;105941;1285;60194;-71
2023/01/03 01:34:19;;;;;;;23.70;18.60;;;;;;;6.47;100.00;99608.60;105930;1290;59744;-72
2023/01/03 01:36:46;;;;;;;23.00;18.50;;;;;;;6.48;100.00;99612.08;105722;1287;60942;-71
2023/01/03 01:39:20;;;;;;;20.00;17.00;;;;;;;6.49;100.00;99609.21;105828;1278;59753;-71
2023/01/03 01:44:43;;;;;;;20.40;17.10;;;;;;;6.51;100.00;99607.73;105932;1291;63810;-70
2023/01/03 01:47:15;;;;;;;19.90;15.40;;;;;;;6.49;100.00;99604.27;105982;1287;59548;-71
2023/01/03 01:49:45;;;;;;;22.10;15.10;;;;;;;6.47;100.00;99604.16;105692;1294;59632;-71
2023/01/03 01:52:14;;;;;;;17.10;15.30;;;;;;;6.49;100.00;99610.27;105973;1288;66835;-72
2023/01/03 01:54:40;;;;;;;19.40;15.90;;;;;;;6.51;100.00;99611.40;105992;1291;59956;-71
2023/01/03 01:57:13;;;;;;;18.90;15.00;;;;;;;6.54;100.00;99611.82;105950;1284;59971;-71
2023/01/03 01:59:40;;;;;;;20.00;14.70;;;;;;;6.55;100.00;99615.83;105954;1284;60191;-71
2023/01/03 02:02:08;;;;;;;17.20;13.60;;;;;;;6.56;100.00;99618.81;105976;1284;59713;-71
2023/01/03 02:04:37;;;;;;;18.40;14.70;;;;;;;6.57;100.00;99619.98;105980;1291;67731;-71
2023/01/03 02:07:05;;;;;;;16.50;13.50;;;;;;;6.59;100.00;99613.05;105965;1290;60231;-71
2023/01/03 02:09:33;;;;;;;19.20;14.40;;;;;;;6.59;100.00;99611.27;105649;1294;64088;-72
2023/01/03 02:15:23;;;;;;;17.00;12.80;;;;;;;6.59;100.00;99608.63;105938;1290;59706;-71
2023/01/03 02:18:36;;;;;;;16.20;13.00;;;;;;;6.59;100.00;99612.31;105956;1283;66707;-71
2023/01/03 02:21:24;;;;;;;14.80;11.60;;;;;;;6.60;100.00;99612.98;105281;1297;59733;-71
2023/01/03 02:24:22;;;;;;;14.30;11.80;;;;;;;6.64;100.00;99626.77;105246;1300;63910;-70
2023/01/03 02:27:00;;;;;;;15.80;12.10;;;;;;;6.74;100.00;99630.77;105245;1306;60384;-70
2023/01/03 02:29:48;;;;;;;13.90;11.70;;;;;;;6.81;100.00;99626.42;105247;1300;59635;-70
2023/01/03 02:32:21;;;;;;;16.60;11.80;;;;;;;6.87;100.00;99628.84;105280;1298;66646;-69
2023/01/03 02:34:55;;;;;;;13.20;11.10;;;;;;;6.90;100.00;99633.30;105244;1299;60740;-71
2023/01/03 02:37:27;;;;;;;12.90;11.10;;;;;;;6.95;100.00;99633.79;105265;1306;64931;-71
2023/01/03 02:40:13;;;;;;;13.70;10.90;;;;;;;7.02;100.00;99638.84;105237;1298;59947;-71
2023/01/03 02:43:00;;;;;;;15.20;12.10;;;;;;;7.07;100.00;99640.92;105250;1300;59783;-71
2023/01/03 02:45:58;;;;;;;16.80;10.40;;;;;;;7.11;100.00;99644.44;105265;1294;75405;-71
2023/01/03 02:48:35;;;;;;;13.60;10.60;;;;;;;7.15;100.00;99652.59;105259;1298;60086;-71
2023/01/03 02:51:09;;;;;;;14.20;10.10;;;;;;;7.20;100.00;99656.09;105222;1300;64025;-71
2023/01/03 02:53:40;;;;;;;13.40;11.30;;;;;;;7.23;100.00;99655.40;105122;1292;59895;-72
2023/01/03 02:56:11;;;;;;;13.00;10.40;;;;;;;7.28;100.00;99660.16;105252;1298;59531;-72
2023/01/03 02:58:41;;;;;;;14.40;10.80;;;;;;;7.32;100.00;99671.48;105730;1293;67704;-71
2023/01/03 03:01:11;;;;;;;14.70;10.40;;;;;;;7.36;100.00;99678.20;105978;1290;68268;-72
2023/01/03 03:03:39;;;;;;;15.50;11.20;;;;;;;7.42;100.00;99680.61;105626;1294;64016;-72
2023/01/03 03:06:06;;;;;;;13.20;11.10;;;;;;;7.45;100.00;99680.27;105955;1291;59717;-70
2023/01/03 03:08:33;;;;;;;12.50;10.50;;;;;;;7.48;100.00;99683.14;105967;1282;59723;-71
2023/01/03 03:14:16;;;;;;;12.20;10.60;;;;;;;7.56;100.00;99694.84;105515;1289;61128;-71
2023/01/03 03:16:48;;;;;;;12.70;10.40;;;;;;;7.61;100.00;99693.75;105228;1293;64025;-71
2023/01/03 03:25:45;;;;;;;15.20;11.00;;;;;;;7.71;100.00;99718.23;105266;1298;66782;-71
2023/01/03 03:28:33;;;;;;;14.20;11.00;;;;;;;7.76;100.00;99721.39;105241;1298;60751;-70
2023/01/03 03:31:15;;;;;;;14.20;10.20;;;;;;;7.80;100.00;99728.83;105236;1306;65101;-72
2023/01/03 03:33:50;;;;;;;15.10;10.90;;;;;;;7.84;100.00;99731.44;105091;1293;60113;-70
2023/01/03 03:36:18;;;;;;;14.60;10.70;;;;;;;7.88;100.00;99732.55;105256;1299;59702;-71
2023/01/03 03:38:45;;;;;;;15.90;11.80;;;;;;;7.88;100.00;99736.95;105252;1298;75866;-71
2023/01/03 03:47:31;;;;;;;14.40;11.70;;;;;;;7.87;100.00;99744.44;105236;1307;59888;-70
2023/01/03 03:50:28;;;;;;;15.80;13.10;;;;;;;7.87;100.00;99746.36;105250;1298;59768;-71
2023/01/03 03:52:58;;;;;;;14.60;12.40;;;;;;;7.87;100.00;99743.38;104848;1303;66868;-71
2023/01/03 03:55:31;;;;;;;19.70;13.90;;;;;;;7.86;100.00;99747.11;104855;1303;60749;-71
2023/01/03 03:58:04;;;;;;;18.10;13.90;;;;;;;7.86;100.00;99752.63;105087;1297;63894;-71
2023/01/03 04:00:34;;;;;;;19.00;14.00;;;;;;;7.85;100.00;99756.56;105492;1297;59771;-71
2023/01/03 04:03:03;;;;;;;19.30;14.70;;;;;;;7.86;100.00;99756.35;105517;1295;59876;-71
2023/01/03 04:05:33;;;;;;;20.30;15.50;;;;;;;7.86;100.00;99763.06;105508;1290;67952;-71
2023/01/03 04:07:59;;;;;;;21.00;15.30;;;;;;;7.85;100.00;99762.93;105537;1298;60830;-71
2023/01/03 04:10:25;;;;;;;21.00;14.30;;;;;;;7.84;100.00;99760.29;105506;1297;59836;-71
2023/01/03 04:12:51;;;;;;;21.90;15.10;;;;;;;7.84;100.00;99761.52;105504;1294;60143;-70
2023/01/03 04:15:19;;;;;;;22.20;16.40;;;;;;;7.84;100.00;99765.59;105504;1288;59816;-71
2023/01/03 04:17:44;;;;;;;23.40;16.60;;;;;;;7.85;100.00;99771.95;105527;1297;59983;-72
2023/01/03 04:20:11;;;;;;;20.30;14.80;;;;;;;7.86;100.00;99774.73;105511;1288;59754;-71
2023/01/03 04:22:38;;;;;;;22.80;16.40;;;;;;;7.85;100.00;99778.52;105503;1304;59878;-71
2023/01/03 04:25:05;;;;;;;25.00;16.60;;;;;;;7.86;100.00;99779.33;105531;1296;59787;-72
2023/01/03 04:27:31;;;;;;;20.50;14.80;;;;;;;7.85;100.00;99783.08;105488;1295;59767;-72
2023/01/03 04:29:58;;;;;;;22.40;17.70;;;;;;;7.83;100.00;99785.83;105615;1293;60276;-72
2023/01/03 04:32:24;;;;;;;23.10;17.50;;;;;;;7.81;100.00;99790.32;105922;1283;59722;-71
2023/01/03 04:34:50;;;;;;;23.60;17.40;;;;;;;7.80;100.00;99792.15;105957;1290;60410;-72
2023/01/03 04:37:16;;;;;;;21.90;17.40;;;;;;;7.77;100.00;99794.91;105858;1292;60321;-71
2023/01/03 04:39:42;;;;;;;24.10;17.90;;;;;;;7.73;100.00;99795.13;105955;1291;59714;-71
2023/01/03 04:44:53;;;;;;;24.60;17.80;;;;;;;7.66;100.00;99798.41;105963;1291;60920;-70
2023/01/03 04:47:20;;;;;;;26.30;18.30;;;;;;;7.63;100.00;99799.42;105947;1291;65120;-71
2023/01/03 04:49:47;;;;;;;25.80;18.70;;;;;;;7.60;100.00;99801.86;105957;1292;59890;-71
2023/01/03 04:52:14;;;;;;;24.40;18.50;;;;;;;7.56;100.00;99801.82;105958;1281;59765;-71
2023/01/03 04:54:40;;;;;;;25.30;18.70;;;;;;;7.53;100.00;99800.71;105942;1281;66778;-71
2023/01/03 04:57:07;;;;;;;22.80;18.10;;;;;;;7.48;100.00;99798.61;105909;1291;59634;-72
2023/01/03 04:59:33;;;;;;;25.10;18.10;;;;;;;7.44;100.00;99805.84;105949;1285;60468;-72
2023/01/03 05:02:00;;;;;;;25.30;18.30;;;;;;;7.40;100.00;99805.67;105944;1291;60309;-71
2023/01/03 05:04:28;;;;;;;22.60;17.20;;;;;;;7.36;100.00;99804.23;105959;1289;59723;-70
2023/01/03 05:06:54;;;;;;;22.90;16.60;;;;;;;7.33;100.00;99800.47;105955;1292;66792;-71
2023/01/03 05:09:21;;;;;;;26.20;17.80;;;;;;;7.30;100.00;99803.95;105955;1291;59956;-71
2023/01/03 05:11:48;;;;;;;24.40;17.60;;;;;;;7.25;100.00;99805.89;105654;1295;59842;-71
2023/01/03 05:14:14;;;;;;;29.30;18.30;;;;;;;7.21;100.00;99806.95;105897;1290;59718;-71
2023/01/03 05:16:41;;;;;;;24.60;17.60;;;;;;;7.17;100.00;99806.23;105950;1291;59782;-72
2023/01/03 05:19:07;;;;;;;23.70;17.40;;;;;;;7.12;100.00;99806.60;105737;1291;59746;-72
2023/01/03 05:27:04;;;;;;;25.30;19.50;;;;;;;6.99;100.00;99812.43;105957;1288;60094;-71
2023/01/03 05:29:33;;;;;;;28.30;21.30;;;;;;;6.95;100.00;99812.93;105977;1288;59651;-70
2023/01/03 05:32:00;;;;;;;26.10;19.00;;;;;;;6.92;100.00;99821.91;105971;1290;67724;-71
2023/01/03 05:34:27;;;;;;;31.70;20.20;;;;;;;6.87;100.00;99824.02;105969;1287;59747;-71
2023/01/03 05:36:52;;;;;;;31.00;21.10;;;;;;;6.84;100.00;99824.16;105940;1288;64054;-70
2023/01/03 05:39:19;;;;;;;28.50;20.40;;;;;;;6.80;100.00;99831.36;105967;1285;59789;-71
2023/01/03 05:42:00;;;;;;;30.10;21.80;;;;;;;6.75;100.00;99838.80;105877;1291;159524;-71
2023/01/03 05:44:29;;;;;;;29.20;21.90;;;;;;;6.69;100.00;99843.05;105967;1287;66641;-71
2023/01/03 05:46:57;;;;;;;35.20;22.00;;;;;;;6.66;100.00;99850.27;105978;1284;61131;-70
2023/01/03 05:49:23;;;;;;;32.60;22.40;;;;;;;6.62;100.00;99856.75;105673;1292;64990;-70
2023/01/03 05:51:52;;;;;;;32.70;23.50;;;;;;;6.59;100.00;99862.30;105959;1292;59745;-71
2023/01/03 05:54:20;;;;;;;28.80;21.90;;;;;;;6.58;100.00;99865.54;105965;1287;59734;-72
2023/01/03 05:56:46;;;;;;;28.80;20.70;;;;;;;6.57;100.00;99863.10;105638;1300;68074;-71
2023/01/03 05:59:12;;;;;;;31.40;23.60;;;;;;;6.55;100.00;99865.30;105959;1291;59813;-71
2023/01/03 06:01:41;;;;;;;31.20;23.20;;;;;;;6.53;100.00;99868.73;105951;1284;63777;-71
2023/01/03 06:04:08;;;;;;;35.00;26.70;;;;;;;6.51;100.00;99872.35;105944;1291;59713;-71
2023/01/03 06:06:34;;;;;;;37.20;28.90;;;;;;;6.48;100.00;99876.86;105967;1284;59634;-71
2023/01/03 06:09:01;;;;;;;35.40;25.80;;;;;;;6.46;100.00;99880.64;105974;1292;59759;-71
2023/01/03 06:11:27;;;;;;;37.30;26.30;;;;;;;6.47;100.00;99881.15;105956;1290;59697;-71
2023/01/03 06:13:55;;;;;;;30.60;24.20;;;;;;;6.46;100.00;99877.64;105956;1289;59770;-71
2023/01/03 06:19:07;;;;;;;33.00;24.10;;;;;;;6.44;100.00;99889.02;105980;1290;59772;-71
2023/01/03 06:21:34;;;;;;;29.70;21.80;;;;;;;6.43;100.00;99892.75;105731;1295;66672;-71
2023/01/03 06:24:00;;;;;;;35.20;27.10;;;;;;;6.43;100.00;99897.52;105964;1282;60959;-71
2023/01/03 06:26:26;;;;;;;35.60;24.60;;;;;;;6.44;100.00;99904.56;105973;1290;59787;-71
2023/01/03 06:28:54;;;;;;;37.30;25.80;;;;;;;6.44;100.00;99906.31;105933;1298;60195;-72
2023/01/03 06:31:20;;;;;;;36.50;26.20;;;;;;;6.45;100.00;99907.86;105968;1292;59796;-72
2023/01/03 06:33:46;;;;;;;33.90;25.60;;;;;;;6.45;100.00;99915.30;105959;1292;59832;-72
2023/01/03 06:36:16;;;;;;;39.10;25.60;;;;;;;6.45;100.00;99918.13;105955;1291;59785;-72
2023/01/03 06:38:42;;;;;;;33.80;25.10;;;;;;;6.45;100.00;99926.40;105960;1292;65006;-72
2023/01/03 06:41:09;;;;;;;38.30;25.80;;;;;;;6.45;100.00;99935.23;105960;1288;60617;-72
2023/01/03 06:43:36;;;;;;;34.70;25.80;;;;;;;6.46;100.00;99937.31;105971;1290;59934;-71
2023/01/03 06:54:22;;;;;;;36.90;24.30;;;;;;;6.46;100.00;99945.09;105954;1282;59748;-71
2023/01/03 06:56:50;;;;;;;33.90;23.30;;;;;;;6.47;100.00;99950.34;105962;1284;59722;-71
2023/01/03 06:59:18;;;;;;;32.50;23.90;;;;;;;6.48;100.00;99954.54;105958;1292;67615;-72
2023/01/03 07:01:45;;;;;;;33.40;25.10;;;;;;;6.49;100.00;99958.73;105949;1298;59873;-71
2023/01/03 07:04:13;;;;;;;32.20;25.10;;;;;;;6.51;100.00;99961.15;105960;1291;64822;-72
2023/01/03 07:06:40;;;;;;;33.70;24.20;;;;;;;6.52;100.00;99964.27;105949;1292;60061;-71
2023/01/03 07:09:07;;;;;;;33.90;25.40;;;;;;;6.54;100.00;99968.44;105949;1291;59674;-72
2023/01/03 07:11:34;;;;;;;32.40;24.50;;;;;;;6.56;100.00;99973.85;105983;1291;67935;-72
2023/01/03 07:14:02;;;;;;;34.10;25.10;;;;;;;6.59;100.00;99976.23;105953;1292;60981;-72
2023/01/03 07:16:31;;;;;;;40.50;27.40;;;;;;;6.62;100.00;99980.89;105727;1284;64202;-72
2023/01/03 07:18:59;;;;;;;36.30;27.70;;;;;;;6.65;100.00;99983.63;105946;1292;59653;-71
2023/01/03 07:21:27;;;;;;;34.90;25.60;;;;;;;6.68;100.00;99982.64;105956;1292;59601;-71
2023/01/03 07:23:56;;;;;;;37.80;24.70;;;;;;;6.70;100.00;99988.39;105961;1290;66943;-71
2023/01/03 07:26:24;;;;;;;36.30;25.30;;;;;;;6.72;100.00;99990.94;105965;1295;61632;-71
2023/01/03 07:28:51;;;;;;;39.90;25.40;;;;;;;6.76;100.00;99992.59;105656;1287;65047;-71
2023/01/03 07:31:18;;;;;;;41.00;28.30;;;;;;;6.79;100.00;99993.20;105963;1289;60062;-71
2023/01/03 07:33:45;;;;;;;41.40;27.50;;;;;;;6.82;100.00;99993.23;105981;1292;59966;-70
2023/01/03 07:36:13;;;;;;;41.20;28.80;;;;;;;6.87;100.00;99998.73;106055;1295;65189;-71
2023/01/03 07:38:41;;;;;;;38.00;27.50;;;;;;;6.91;100.00;100002.48;106066;1288;61046;-71
2023/01/03 07:41:07;;;;;;;40.20;27.90;;;;;;;6.93;100.00;100003.45;105895;1292;65286;-71
2023/01/03 07:43:37;;;;;;;44.80;30.10;;;;;;;6.98;100.00;100004.35;105823;1292;60566;-70
2023/01/03 07:46:07;;;;;;;;;;;;;;;7.02;100.00;100009.30;106068;1289;59687;-71
2023/01/03 07:48:34;;;;;;;37.00;27.40;;;;;;;7.06;100.00;100012.70;106035;1295;67778;-72
2023/01/03 07:51:01;;;;;;;36.70;27.80;;;;;;;7.12;100.00;100014.80;105773;1295;60969;-71
2023/01/03 07:53:27;;;;;;;35.60;26.20;;;;;;;7.18;100.00;100020.06;106039;1289;64977;-71
2023/01/03 07:56:03;;;;;;;34.70;26.10;;;;;;;7.24;100.00;100016.29;106047;1289;59716;-71
2023/01/03 07:58:29;;;;;;;34.30;25.40;;;;;;;7.31;100.00;100021.54;106056;1289;59752;-71
2023/01/03 08:00:55;;;;;;;34.80;24.90;;;;;;;7.35;100.00;100027.21;106069;1288;59878;-72
2023/01/03 08:03:21;;;;;;;31.00;24.50;;;;;;;7.40;100.00;100030.39;106058;1288;59881;-72
2023/01/03 08:05:47;;;;;;;36.60;27.60;;;;;;;7.43;100.00;100032.73;106051;1281;60503;-72
2023/01/03 08:08:13;;;;;;;36.70;26.80;;;;;;;7.44;100.00;100037.27;106051;1295;59893;-72
2023/01/03 08:13:24;;;;;;;46.00;34.10;;;;;;;7.44;100.00;100035.52;106066;1289;65436;-71
2023/01/03 08:15:54;;;;;;;46.50;34.90;;;;;;;7.45;100.00;100038.48;106047;1287;59715;-72
2023/01/03 08:18:26;;;;;;;47.40;34.00;;;;;;;7.49;100.00;100035.33;106032;1288;71753;-72
2023/01/03 08:20:55;;;;;;;37.30;29.10;;;;;;;7.52;100.00;100039.48;106026;1287;59673;-72
2023/01/03 08:23:22;;;;;;;40.00;28.20;;;;;;;7.55;100.00;100043.60;106043;1289;59722;-71
2023/01/03 08:25:48;;;;;;;34.70;26.60;;;;;;;7.60;100.00;100044.48;106065;1288;66777;-71
2023/01/03 08:28:15;;;;;;;41.90;28.10;;;;;;;7.66;100.00;100045.84;106053;1282;60125;-72
2023/01/03 08:30:51;;;;;;;38.50;28.30;;;;;;;7.72;100.00;100048.98;106031;1285;63926;-71
2023/01/03 08:33:19;;;;;;;38.60;28.10;;;;;;;7.73;100.00;100049.66;105819;1298;59907;-71
2023/01/03 08:35:57;;;;;;;39.60;28.10;;;;;;;7.70;100.00;100048.88;106000;1295;59493;-71
2023/01/03 08:38:32;;;;;;;34.70;27.00;;;;;;;7.64;100.00;100052.09;106059;1287;67869;-71
2023/01/03 08:41:00;;;;;;;35.70;26.30;;;;;;;7.58;100.00;100049.70;106053;1289;61033;-72
2023/01/03 08:43:31;;;;;;;34.80;26.80;;;;;;;7.51;100.00;100049.94;106026;1287;65078;-72
2023/01/03 08:45:57;;;;;;;35.10;27.20;;;;;;;7.45;100.00;100056.17;105674;1300;59879;-71
2023/01/03 08:48:24;;;;;;;33.70;26.40;;;;;;;7.43;100.00;100066.88;105763;1290;59773;-71
2023/01/03 08:50:50;;;;;;;36.20;27.30;;;;;;;7.44;100.00;100068.23;106046;1281;60000;-71
2023/01/03 08:53:16;;;;;;;38.80;27.60;;;;;;;7.48;100.00;100071.80;106049;1286;59808;-71
2023/01/03 08:55:43;;;;;;;39.20;28.40;;;;;;;7.51;100.00;100070.80;106034;1297;60075;-71
2023/01/03 08:58:09;;;;;;;37.10;27.50;;;;;;;7.53;100.00;100066.51;106029;1288;59616;-72
2023/01/03 09:00:38;;;;;;;37.90;27.60;;;;;;;7.53;100.00;100071.80;106062;1282;59812;-72
2023/01/03 09:03:04;;;;;;;37.40;26.60;;;;;;;7.55;100.00;100076.14;106055;1289;66693;-71
2023/01/03 09:05:31;;;;;;;38.40;28.10;;;;;;;7.59;100.00;100073.34;106044;1288;61088;-71
2023/01/03 09:07:57;;;;;;;37.50;26.90;;;;;;;7.61;100.00;100077.66;106022;1287;59822;-70
2023/01/03 09:10:24;;;;;;;36.00;27.10;;;;;;;7.65;100.00;100078.61;106043;1287;60007;-72
2023/01/03 09:12:51;;;;;;;36.60;25.80;;;;;;;7.69;100.00;100079.88;106048;1289;59788;-71
2023/01/03 09:15:17;;;;;;;33.60;24.70;;;;;;;7.74;100.00;100084.98;106056;1288;59765;-71
2023/01/03 09:17:44;;;;;;;33.10;25.10;;;;;;;7.82;100.00;100085.91;106077;1288;59952;-71
2023/01/03 09:20:12;;;;;;;33.30;25.50;;;;;;;7.91;100.00;100083.09;105741;1299;59983;-71
2023/01/03 09:22:39;;;;;;;34.60;27.20;;;;;;;8.00;100.00;100083.29;106030;1290;59627;-71
2023/01/03 09:25:05;;;;;;;33.20;26.40;;;;;;;8.08;100.00;100082.09;106057;1291;59703;-71
2023/01/03 09:27:32;;;;;;;35.70;25.20;;;;;;;8.15;100.00;100078.61;106052;1286;67765;-71
2023/01/03 09:29:58;;;;;;;34.30;25.40;;;;;;;8.24;100.00;100080.39;106053;1289;59998;-71
2023/01/03 09:32:24;;;;;;;37.50;25.50;;;;;;;8.31;100.00;100073.71;105796;1292;59799;-71
2023/01/03 09:34:50;;;;;;;33.30;25.30;;;;;;;8.41;100.00;100071.25;106033;1291;59650;-71
2023/01/03 09:37:17;;;;;;;32.00;24.60;;;;;;;8.48;100.00;100066.36;106045;1282;59616;-71
2023/01/03 09:39:43;;;;;;;32.80;24.20;;;;;;;8.55;100.00;100068.69;106055;1288;59765;-71
2023/01/03 09:45:07;;;;;;;35.90;26.20;;;;;;;8.65;100.00;100071.65;106019;1295;64934;-73
2023/01/03 09:47:36;;;;;;;35.30;26.60;;;;;;;8.71;100.00;100067.70;106040;1295;59901;-72
2023/01/03 09:50:08;;;;;;;33.00;26.20;;;;;;;8.76;100.00;100069.80;106038;1287;59668;-72
2023/01/03 10:04:30;;;;;;;31.40;23.00;;;;;;;8.97;100.00;100065.85;106053;1288;59947;-70
2023/01/03 10:07:27;;;;;;;30.00;22.40;;;;;;;9.02;100.00;100059.45;105747;1290;74402;-71
2023/01/03 10:10:37;;;;;;;28.00;21.00;;;;;;;9.07;100.00;100058.52;105933;1295;61368;-71
2023/01/03 10:13:06;;;;;;;29.60;21.80;;;;;;;9.16;100.00;100061.34;105501;1300;65107;-72
2023/01/03 10:15:55;;;;;;;29.90;21.60;;;;;;;9.24;100.00;100056.56;105546;1295;59891;-71
2023/01/03 10:18:39;;;;;;;30.30;21.70;;;;;;;9.30;100.00;100056.29;105498;1303;59835;-72
2023/01/03 10:21:22;;;;;;;28.80;21.60;;;;;;;9.39;100.00;100058.69;105523;1287;66934;-72
2023/01/03 10:23:49;;;;;;;26.80;20.60;;;;;;;9.51;100.00;100060.12;105536;1295;59973;-71
2023/01/03 10:26:17;;;;;;;26.90;20.60;;;;;;;9.58;100.00;100059.96;105541;1298;63219;-71
2023/01/03 10:28:44;;;;;;;26.90;20.20;;;;;;;9.63;100.00;100056.17;105485;1300;59824;-72
2023/01/03 10:31:22;;;;;;;26.30;19.90;;;;;;;9.68;100.00;100056.16;105518;1295;59697;-71
2023/01/03 10:33:49;;;;;;;24.00;19.30;;;;;;;9.70;100.00;100051.81;105536;1298;67807;-72
2023/01/03 10:36:17;;;;;;;26.20;20.90;;;;;;;9.68;100.00;100053.13;105528;1297;60104;-72
2023/01/03 10:38:45;;;;;;;25.50;21.00;;;;;;;9.65;100.00;100054.52;105500;1301;64034;-72
2023/01/03 10:41:15;;;;;;;24.90;21.00;;;;;;;9.63;100.00;100055.31;105515;1295;59753;-72
2023/01/03 10:43:56;;;;;;;25.50;20.30;;;;;;;9.63;100.00;100052.98;105372;1304;59797;-72
2023/01/03 10:46:24;;;;;;;28.10;20.80;;;;;;;9.61;100.00;100048.27;105469;1291;67730;-71
2023/01/03 10:48:52;;;;;;;24.60;19.40;;;;;;;9.59;100.00;100051.91;105592;1291;68373;-72
2023/01/03 10:51:32;;;;;;;24.10;18.70;;;;;;;9.56;100.00;100054.95;106004;1289;65551;-71
2023/01/03 10:54:00;;;;;;;24.80;18.50;;;;;;;9.51;100.00;100054.09;105765;1295;60421;-72
2023/01/03 10:56:29;;;;;;;24.00;18.10;;;;;;;9.47;100.00;100050.37;105893;1284;59714;-72
2023/01/03 10:59:14;;;;;;;24.60;19.30;;;;;;;9.42;100.00;100043.29;105757;1298;67987;-71
2023/01/03 11:01:59;;;;;;;22.30;16.90;;;;;;;9.37;100.00;100050.84;106057;1294;60788;-71
2023/01/03 11:04:30;;;;;;;21.60;16.40;;;;;;;9.34;100.00;100051.66;105871;1298;65016;-71
2023/01/03 11:07:01;;;;;;;22.40;17.70;;;;;;;9.35;100.00;100048.77;105999;1289;59758;-71
2023/01/03 11:09:48;;;;;;;21.30;16.60;;;;;;;9.38;100.00;100053.09;106051;1290;59566;-71
2023/01/03 11:12:35;;;;;;;21.80;16.00;;;;;;;9.42;100.00;100046.87;106043;1288;66461;-71
2023/01/03 11:15:14;;;;;;;24.30;16.80;;;;;;;9.47;100.00;100047.73;106054;1281;59940;-71
2023/01/03 11:17:54;;;;;;;25.30;17.40;;;;;;;9.52;100.00;100045.36;106036;1289;63932;-71
2023/01/03 11:20:27;;;;;;;25.50;16.90;;;;;;;9.58;100.00;100051.99;106051;1294;60064;-72
2023/01/03 11:23:00;;;;;;;21.20;16.10;;;;;;;9.66;100.00;100052.67;105730;1290;59787;-71
2023/01/03 11:25:45;;;;;;;19.90;15.70;;;;;;;9.68;100.00;100046.72;106041;1292;68167;-71
2023/01/03 11:28:33;;;;;;;20.80;15.30;;;;;;;9.66;100.00;100046.65;105906;1295;59925;-72
2023/01/03 11:31:25;;;;;;;20.50;15.60;;;;;;;9.62;100.00;100043.80;106018;1289;64913;-72
2023/01/03 11:34:18;;;;;;;21.90;15.20;;;;;;;9.63;100.00;100040.76;106045;1289;59762;-71
2023/01/03 11:36:58;;;;;;;17.70;14.90;;;;;;;9.66;100.00;100037.58;105765;1290;59750;-72
2023/01/03 11:39:34;;;;;;;17.90;12.90;;;;;;;9.67;100.00;100035.59;106029;1289;66538;-72
2023/01/03 11:42:22;;;;;;;18.30;13.90;;;;;;;9.62;100.00;100032.28;106057;1289;60731;-72
2023/01/03 11:45:03;;;;;;;17.50;14.20;;;;;;;9.54;100.00;100028.92;106016;1289;65047;-70
2023/01/03 11:47:43;;;;;;;18.30;14.50;;;;;;;9.49;100.00;100031.83;106018;1281;59845;-71
2023/01/03 11:50:24;;;;;;;17.30;14.20;;;;;;;9.45;100.00;100034.12;106033;1291;59888;-70
2023/01/03 11:53:14;;;;;;;16.70;13.50;;;;;;;9.46;100.00;100034.79;106045;1289;67921;-73
2023/01/03 11:55:43;;;;;;;17.40;13.40;;;;;;;9.48;100.00;100034.73;106024;1288;60830;-75
2023/01/03 11:58:20;;;;;;;18.40;14.00;;;;;;;9.52;100.00;100033.31;106033;1288;62433;-81
2023/01/03 12:01:18;;;;;;;16.00;12.40;;;;;;;9.57;100.00;100033.23;105935;1290;59776;-71
2023/01/03 12:04:06;;;;;;;16.00;12.40;;;;;;;9.64;100.00;100027.73;106055;1287;60001;-72
2023/01/03 12:06:33;;;;;;;15.20;11.80;;;;;;;9.73;100.00;100028.22;106061;1289;67536;-71
2023/01/03 12:09:17;;;;;;;16.90;12.30;;;;;;;9.80;100.00;100022.92;106060;1289;59823;-72
2023/01/03 12:11:59;;;;;;;13.80;11.30;;;;;;;9.89;100.00;100024.50;106029;1291;65189;-72
2023/01/03 12:14:34;;;;;;;16.10;13.00;;;;;;;9.93;100.00;100023.58;105948;1287;59989;-72
2023/01/03 12:17:36;;;;;;;16.80;13.10;;;;;;;9.96;100.00;100021.13;106036;1295;59651;-72
2023/01/03 12:20:12;;;;;;;20.50;15.00;;;;;;;10.02;100.00;100022.59;105369;1302;67856;-71
2023/01/03 12:23:01;;;;;;;17.40;13.30;;;;;;;10.07;100.00;100024.11;105361;1298;59999;-72